Woodburn, IA (50275)

5:34 PM CDT on September 02, 2015 (GMT -0500)
Osceola Municipal | | Change Station
CLOSE
Current Station
Airport
Location: Osceola Municipal,
Elevation: 1109 ft
Nearby Weather Stations

Elev 1109 ft 41.05 °N, 93.69 °W | Updated 19 minutes ago

Partly Cloudy
Partly Cloudy
84 °F
Feels Like 87 °F
N
13
Wind Variable Wind from South

Today
High -- | Low -- °F
--% Chance of Precip.
Yesterday
High -- | Low -- °F
Precip. -- in
6:41 AM 7:45 PM
Waning Gibbous, 76% visible
Pressure 29.91 in
Visibility 10.0 miles
Clouds Scattered Clouds 11000 ft
Heat Index 87 °F
Dew Point 68 °F
Humidity 59%
Rainfall 1.53 in
Snow Depth Not available.
UV 2 out of 12
Pollen 11.10 out of 12
Air Quality Not available.
Flu Activity Not available.
METAR KI75 022215Z AUTO 19011KT 10SM SCT110 29/20 A2991 RMK AO2 T02890202
Pressure 29.91 in
Visibility 10.0 miles
Clouds Scattered Clouds 11000 ft
Heat Index 87 °F
Dew Point 68 °F
Humidity 59%
Rainfall 1.53 in
Snow Depth Not available.
UV 2 out of 12
Pollen 11.10 out of 12
Air Quality Not available.
Flu Activity Not available.
METAR KI75 022215Z AUTO 19011KT 10SM SCT110 29/20 A2991 RMK AO2 T02890202

10-Day Weather Forecast

×

Almanac

Astronomy

Sep. 02, 2015 Rise Set
Actual Time
Civil Twilight
Nautical Twilight
Astronomical Twilight
Moon
Length of Visible Light
Length of Day
Tomorrow will be .
, % of the Moon is Illuminated

Today's Extremes

State Highs State Lows

Community

WunderPhotos

Upload Photos

1,851,828 photos uploaded!

WunderBlogs® & News

Nearby

Air Quality

  Air Quality AQ Index Pollutant
Not available.

Snow Depth

Station Depth Elevation

Earthquake Activity

City Distance Mag. Time & Date
Minimum magnitude displayed is 2.5.

Coastal Water Temperatures

Place Temperature

Stations

Nearby Weather Stations

Station Location Temp. Windchill Dew Point Humidity Wind Precip. Elev Updated Type